createdAt,value
2022-07-31T00:01:35.705Z,98172.06
2022-07-31T00:04:08.881Z,98177.72
2022-07-31T00:06:43.728Z,98184.28
2022-07-31T00:09:51.642Z,98177.31
2022-07-31T00:12:10.075Z,98176.69
2022-07-31T00:14:44.588Z,98177.47
2022-07-31T00:17:17.713Z,98179.91
2022-07-31T00:19:51.011Z,98179.91
2022-07-31T00:22:24.293Z,98173.91
2022-07-31T00:24:57.965Z,98172.81
2022-07-31T00:27:31.147Z,98167.69
2022-07-31T00:30:07.689Z,98170.25
2022-07-31T00:32:41.728Z,98172.88
2022-07-31T00:35:15.050Z,98168.66
2022-07-31T00:37:48.293Z,98168.66
2022-07-31T00:40:21.777Z,98172.28
2022-07-31T00:42:54.899Z,98175.63
2022-07-31T00:45:31.637Z,98174.78
2022-07-31T00:48:05.764Z,98167.16
2022-07-31T00:50:40.002Z,98173.44
2022-07-31T00:53:13.219Z,98168.47
2022-07-31T00:55:51.274Z,98168.47
2022-07-31T00:58:25.320Z,98177.09
2022-07-31T01:00:59.779Z,98167.63
2022-07-31T01:03:32.909Z,98176.13
2022-07-31T01:06:07.719Z,98170.97
2022-07-31T01:08:41.420Z,98169.34
2022-07-31T01:11:20.804Z,98170.31
2022-07-31T01:13:58.455Z,98164.38
2022-07-31T01:16:38.707Z,98159.97
2022-07-31T01:19:20.260Z,98164.06
2022-07-31T01:22:05.949Z,98163.03
2022-07-31T01:25:11.610Z,98169.03
2022-07-31T01:28:08.077Z,98167.16
2022-07-31T01:30:52.961Z,98168.16
2022-07-31T01:33:42.242Z,98162.19
2022-07-31T01:36:23.256Z,98165.50
2022-07-31T01:38:58.410Z,98160.16
2022-07-31T01:41:39.457Z,98157.16
2022-07-31T01:44:14.502Z,98158.13
2022-07-31T01:46:49.966Z,98158.13
2022-07-31T01:49:23.989Z,98151.31
2022-07-31T01:52:04.570Z,98150.44
2022-07-31T01:54:38.988Z,98150.72
2022-07-31T01:57:13.789Z,98151.53
2022-07-31T01:59:55.312Z,98155.06
2022-07-31T02:02:31.187Z,98156.81
2022-07-31T02:05:07.525Z,98155.06
2022-07-31T02:07:42.480Z,98154.00
2022-07-31T02:10:18.061Z,98154.75
2022-07-31T02:12:52.126Z,98161.44
2022-07-31T02:15:26.987Z,98159.59
2022-07-31T02:18:02.426Z,98157.81
2022-07-31T02:20:36.204Z,98154.28
2022-07-31T02:23:09.388Z,98152.66
2022-07-31T02:25:44.668Z,98153.28
2022-07-31T02:28:21.275Z,98150.47
2022-07-31T02:30:55.289Z,98149.56
2022-07-31T02:33:30.779Z,98150.31
2022-07-31T02:36:05.303Z,98151.13
2022-07-31T02:38:40.814Z,98151.94
2022-07-31T02:41:34.660Z,98149.41
2022-07-31T02:44:16.953Z,98150.63
2022-07-31T02:47:18.696Z,98142.03
2022-07-31T02:50:08.053Z,98144.63
2022-07-31T02:56:37.477Z,98147.66
2022-07-31T02:59:57.646Z,98144.72
2022-07-31T03:02:48.611Z,98146.94
2022-07-31T03:08:45.260Z,98149.88
2022-07-31T03:11:49.324Z,98146.59
2022-07-31T03:15:00.778Z,98150.91
2022-07-31T03:18:11.641Z,98153.41
2022-07-31T03:21:04.996Z,98166.53
2022-07-31T03:23:50.423Z,98156.81
2022-07-31T03:29:54.104Z,98151.66
2022-07-31T03:36:11.787Z,98161.84
2022-07-31T03:38:53.651Z,98156.31
2022-07-31T03:42:01.941Z,98157.97
2022-07-31T03:44:51.042Z,98144.66
2022-07-31T03:47:38.125Z,98154.66
2022-07-31T03:50:27.010Z,98141.88
2022-07-31T03:53:29.004Z,98139.56
2022-07-31T03:56:13.190Z,98144.84
2022-07-31T03:58:54.182Z,98154.44
2022-07-31T04:01:58.111Z,98157.84
2022-07-31T04:05:09.617Z,98158.78
2022-07-31T04:11:02.530Z,98162.91
2022-07-31T04:13:53.463Z,98166.50
2022-07-31T04:16:57.610Z,98162.25
2022-07-31T04:19:52.634Z,98167.66
2022-07-31T04:22:37.759Z,98164.66
2022-07-31T04:25:34.605Z,98174.00
2022-07-31T04:28:19.964Z,98173.84
2022-07-31T04:31:03.753Z,98176.47
2022-07-31T04:33:55.957Z,98180.63
2022-07-31T04:36:42.159Z,98179.16
2022-07-31T04:39:58.770Z,98179.00
2022-07-31T04:42:42.752Z,98172.94
2022-07-31T04:45:25.537Z,98169.31
2022-07-31T04:48:07.470Z,98173.22
2022-07-31T04:50:51.017Z,98171.25
2022-07-31T04:57:03.994Z,98170.19
2022-07-31T05:00:12.276Z,98178.19
2022-07-31T05:03:21.846Z,98172.56
2022-07-31T05:06:20.265Z,98182.63
2022-07-31T05:09:05.474Z,98185.63
2022-07-31T05:12:21.164Z,98184.16
2022-07-31T05:15:26.465Z,98188.72
2022-07-31T05:18:23.208Z,98194.28
2022-07-31T05:21:09.289Z,98184.63
2022-07-31T05:24:08.832Z,98178.59
2022-07-31T05:26:56.908Z,98184.53
2022-07-31T05:30:12.344Z,98181.38
2022-07-31T05:33:07.881Z,98181.28
2022-07-31T05:36:51.908Z,98181.59
2022-07-31T05:39:30.524Z,98181.38
2022-07-31T05:42:10.088Z,98177.25
2022-07-31T05:44:47.307Z,98175.97
2022-07-31T05:47:22.867Z,98169.09
2022-07-31T05:49:58.336Z,98169.13
2022-07-31T05:52:34.038Z,98171.72
2022-07-31T05:55:15.295Z,98174.84
2022-07-31T05:57:49.047Z,98171.91
2022-07-31T06:00:22.271Z,98171.34
2022-07-31T06:02:56.566Z,98166.63
2022-07-31T06:05:30.651Z,98169.50
2022-07-31T06:08:03.732Z,98164.72
2022-07-31T06:10:38.753Z,98174.34
2022-07-31T06:13:13.175Z,98178.75
2022-07-31T06:15:49.139Z,98179.72
2022-07-31T06:18:22.865Z,98179.34
2022-07-31T06:20:55.952Z,98178.38
2022-07-31T06:23:29.694Z,98183.38
2022-07-31T06:26:06.760Z,98179.16
2022-07-31T06:28:49.007Z,98176.78
2022-07-31T06:31:23.608Z,98175.53
2022-07-31T06:33:56.738Z,98175.72
2022-07-31T06:36:29.890Z,98178.53
2022-07-31T06:39:03.031Z,98179.50
2022-07-31T06:41:47.410Z,98181.41
2022-07-31T06:44:21.541Z,98176.38
2022-07-31T06:46:54.649Z,98183.44
2022-07-31T06:49:28.294Z,98189.75
2022-07-31T06:52:01.801Z,98188.97
2022-07-31T06:54:38.905Z,98185.53
2022-07-31T06:57:13.794Z,98196.03
2022-07-31T06:59:46.968Z,98191.84
2022-07-31T07:02:20.070Z,98200.41
2022-07-31T07:05:00.012Z,98200.50
2022-07-31T07:07:39.879Z,98204.72
2022-07-31T07:10:12.989Z,98197.81
2022-07-31T07:12:47.474Z,98194.50
2022-07-31T07:15:20.814Z,98188.66
2022-07-31T07:17:54.138Z,98190.50
2022-07-31T07:20:27.235Z,98182.97
2022-07-31T07:23:00.405Z,98172.69
2022-07-31T07:25:33.541Z,98171.13
2022-07-31T07:28:12.036Z,98165.09
2022-07-31T07:30:48.026Z,98163.59
2022-07-31T07:33:40.861Z,98168.03
2022-07-31T07:36:22.795Z,98173.28
2022-07-31T07:38:57.685Z,98164.66
2022-07-31T07:41:30.919Z,98166.63
2022-07-31T07:44:07.173Z,98163.38
2022-07-31T07:46:40.283Z,98170.50
2022-07-31T07:49:13.402Z,98163.84
2022-07-31T07:51:59.958Z,98173.44
2022-07-31T07:54:33.619Z,98177.81
2022-07-31T07:57:06.737Z,98177.78
2022-07-31T07:59:41.201Z,98170.81
2022-07-31T08:02:14.333Z,98170.84
2022-07-31T08:04:48.510Z,98163.50
2022-07-31T08:07:41.568Z,98161.66
2022-07-31T08:10:19.126Z,98163.44
2022-07-31T08:12:54.685Z,98167.09
2022-07-31T08:15:29.879Z,98167.97
2022-07-31T08:18:02.997Z,98171.56
2022-07-31T08:20:38.470Z,98162.66
2022-07-31T08:23:11.593Z,98167.78
2022-07-31T08:25:51.526Z,98155.47
2022-07-31T08:28:26.608Z,98151.28
2022-07-31T08:31:01.358Z,98151.09
2022-07-31T08:33:34.489Z,98156.47
2022-07-31T08:36:09.102Z,98157.53
2022-07-31T08:38:42.168Z,98162.81
2022-07-31T08:41:15.736Z,98162.03
2022-07-31T08:44:02.896Z,98160.31
2022-07-31T08:46:40.702Z,98162.06
2022-07-31T08:49:16.966Z,98161.22
2022-07-31T08:51:52.765Z,98157.72
2022-07-31T08:54:26.650Z,98158.56
2022-07-31T08:57:00.406Z,98149.81
2022-07-31T08:59:33.467Z,98153.25
2022-07-31T09:02:11.595Z,98148.88
2022-07-31T09:04:45.420Z,98163.75
2022-07-31T09:07:20.409Z,98155.81
2022-07-31T09:09:53.500Z,98147.03
2022-07-31T09:12:33.885Z,98141.69
2022-07-31T09:15:22.471Z,98140.47
2022-07-31T09:17:58.043Z,98143.72
2022-07-31T09:20:32.803Z,98141.81
2022-07-31T09:23:07.629Z,98145.91
2022-07-31T09:25:41.878Z,98141.22
2022-07-31T09:28:14.986Z,98142.03
2022-07-31T09:30:57.128Z,98128.91
2022-07-31T09:33:32.689Z,98135.88
2022-07-31T09:36:07.663Z,98126.84
2022-07-31T09:38:44.431Z,98128.28
2022-07-31T09:41:58.165Z,98118.59
2022-07-31T09:44:14.188Z,98134.38
2022-07-31T09:46:50.259Z,98122.75
2022-07-31T09:49:33.441Z,98132.78
2022-07-31T09:52:06.823Z,98129.69
2022-07-31T09:54:40.067Z,98127.88
2022-07-31T09:57:14.687Z,98127.56
2022-07-31T09:59:47.836Z,98123.72
2022-07-31T10:02:22.515Z,98125.53
2022-07-31T10:04:58.928Z,98113.88
2022-07-31T10:07:35.742Z,98112.72
2022-07-31T10:10:10.391Z,98110.13
2022-07-31T10:12:50.876Z,98104.19
2022-07-31T10:15:26.299Z,98096.53
2022-07-31T10:17:59.759Z,98091.00
2022-07-31T10:20:36.768Z,98090.31
2022-07-31T10:23:16.326Z,98086.53
2022-07-31T10:25:54.083Z,98083.63
2022-07-31T10:28:29.640Z,98089.53
2022-07-31T10:31:02.794Z,98088.50
2022-07-31T10:33:44.942Z,98085.06
2022-07-31T10:36:24.007Z,98078.19
2022-07-31T10:39:04.349Z,98082.22
2022-07-31T10:41:50.646Z,98074.19
2022-07-31T10:44:36.798Z,98077.03
2022-07-31T10:47:15.814Z,98074.53
2022-07-31T10:49:50.847Z,98083.34
2022-07-31T10:52:33.472Z,98081.81
2022-07-31T10:55:17.551Z,98083.06
2022-07-31T10:57:56.052Z,98080.09
2022-07-31T11:00:30.997Z,98082.22
2022-07-31T11:03:17.874Z,98062.25
2022-07-31T11:06:01.588Z,98058.75
2022-07-31T11:08:44.527Z,98063.69
2022-07-31T11:11:17.617Z,98068.25
2022-07-31T11:13:55.386Z,98071.81
2022-07-31T11:16:29.115Z,98058.72
2022-07-31T11:19:04.410Z,98054.28
2022-07-31T11:21:40.206Z,98054.41
2022-07-31T11:24:16.909Z,98048.94
2022-07-31T11:26:51.533Z,98045.44
2022-07-31T11:30:00.806Z,98047.28
2022-07-31T11:32:26.109Z,98042.41
2022-07-31T11:34:59.566Z,98035.75
2022-07-31T11:37:46.796Z,98033.16
2022-07-31T11:40:28.595Z,98030.41
2022-07-31T11:45:56.700Z,98014.16
2022-07-31T11:48:38.109Z,98013.44
2022-07-31T11:51:11.486Z,98007.53
2022-07-31T11:53:44.577Z,98012.66
2022-07-31T11:56:20.854Z,98001.81
2022-07-31T11:58:58.476Z,97995.16
2022-07-31T12:01:31.889Z,97984.53
2022-07-31T12:04:08.919Z,97988.00
2022-07-31T12:06:42.495Z,98001.97
2022-07-31T12:10:00.942Z,97996.56
2022-07-31T12:12:12.162Z,97995.00
2022-07-31T12:14:45.202Z,97998.47
2022-07-31T12:17:23.587Z,97991.06
2022-07-31T12:20:07.513Z,97982.91
2022-07-31T12:22:41.394Z,97987.03
2022-07-31T12:25:14.490Z,97981.97
2022-07-31T12:27:54.923Z,97983.38
2022-07-31T12:30:30.111Z,97982.84
2022-07-31T12:33:07.447Z,97975.19
2022-07-31T12:35:55.694Z,97975.38
2022-07-31T12:38:48.954Z,97965.06
2022-07-31T12:41:22.307Z,97963.28
2022-07-31T12:43:56.742Z,97964.69
2022-07-31T12:46:37.299Z,97950.84
2022-07-31T12:49:10.649Z,97953.22
2022-07-31T12:51:46.808Z,97953.13
2022-07-31T12:54:20.140Z,97949.13
2022-07-31T12:56:53.215Z,97955.38
2022-07-31T12:59:27.652Z,97947.38
2022-07-31T13:02:00.996Z,97944.19
2022-07-31T13:04:34.656Z,97950.31
2022-07-31T13:07:08.926Z,97942.22
2022-07-31T13:09:42.048Z,97948.88
2022-07-31T13:12:35.243Z,97941.59
2022-07-31T13:15:11.488Z,97936.56
2022-07-31T13:17:48.061Z,97932.84
2022-07-31T13:20:23.857Z,97934.78
2022-07-31T13:22:58.364Z,97928.69
2022-07-31T13:25:31.664Z,97929.34
2022-07-31T13:28:05.855Z,97922.19
2022-07-31T13:30:40.302Z,97928.53
2022-07-31T13:33:13.337Z,97917.34
2022-07-31T13:35:46.386Z,97919.53
2022-07-31T13:38:19.432Z,97903.63
2022-07-31T13:41:10.354Z,97902.69
2022-07-31T13:43:59.815Z,97902.88
2022-07-31T13:46:36.666Z,97891.91
2022-07-31T13:49:10.580Z,97897.38
2022-07-31T13:51:43.964Z,97900.22
2022-07-31T13:54:17.025Z,97898.50
2022-07-31T13:56:50.195Z,97903.84
2022-07-31T13:59:23.808Z,97890.16
2022-07-31T14:02:04.615Z,97896.03
2022-07-31T14:04:39.208Z,97887.19
2022-07-31T14:07:12.913Z,97885.94
2022-07-31T14:09:54.746Z,97877.41
2022-07-31T14:12:28.372Z,97879.00
2022-07-31T14:15:04.225Z,97872.94
2022-07-31T14:17:38.804Z,97874.94
2022-07-31T14:20:13.069Z,97871.63
2022-07-31T14:22:46.225Z,97877.47
2022-07-31T14:25:19.448Z,97873.34
2022-07-31T14:27:54.046Z,97867.09
2022-07-31T14:30:27.885Z,97864.56
2022-07-31T14:33:05.663Z,97871.41
2022-07-31T14:35:38.717Z,97864.66
2022-07-31T14:38:11.814Z,97857.47
2022-07-31T14:40:44.891Z,97865.50
2022-07-31T14:43:18.012Z,97858.63
2022-07-31T14:45:52.046Z,97848.72
2022-07-31T14:48:27.339Z,97846.53
2022-07-31T14:51:00.418Z,97849.59
2022-07-31T14:53:33.463Z,97846.75
2022-07-31T14:56:07.076Z,97846.38
2022-07-31T14:58:57.269Z,97848.78
2022-07-31T15:01:31.870Z,97843.44
2022-07-31T15:04:06.620Z,97840.03
2022-07-31T15:06:56.258Z,97832.88
2022-07-31T15:09:33.347Z,97836.41
2022-07-31T15:12:07.576Z,97837.16
2022-07-31T15:14:40.834Z,97841.91
2022-07-31T15:17:14.086Z,97829.09
2022-07-31T15:19:48.949Z,97828.06
2022-07-31T15:22:22.258Z,97822.09
2022-07-31T15:24:55.375Z,97821.06
2022-07-31T15:27:28.674Z,97823.13
2022-07-31T15:30:07.039Z,97825.69
2022-07-31T15:32:41.241Z,97817.66
2022-07-31T15:35:16.342Z,97821.44
2022-07-31T15:37:50.486Z,97820.00
2022-07-31T15:40:23.600Z,97818.34
2022-07-31T15:42:56.725Z,97809.59
2022-07-31T15:45:29.998Z,97816.44
2022-07-31T15:48:05.855Z,97809.31
2022-07-31T15:50:42.882Z,97807.38
2022-07-31T15:53:15.944Z,97813.50
2022-07-31T15:55:48.985Z,97796.69
2022-07-31T15:58:22.163Z,97793.94
2022-07-31T16:00:55.495Z,97796.50
2022-07-31T16:03:50.715Z,97788.75
2022-07-31T16:06:27.766Z,97780.94
2022-07-31T16:09:01.355Z,97787.28
2022-07-31T16:12:03.493Z,97783.00
2022-07-31T16:14:27.860Z,97775.91
2022-07-31T16:17:00.929Z,97782.19
2022-07-31T16:19:34.584Z,97776.19
2022-07-31T16:22:09.275Z,97776.88
2022-07-31T16:24:42.437Z,97774.31
2022-07-31T16:27:15.462Z,97768.97
2022-07-31T16:29:59.570Z,97772.38
2022-07-31T16:32:35.386Z,97764.47
2022-07-31T16:35:10.158Z,97760.91
2022-07-31T16:37:51.327Z,97766.75
2022-07-31T16:40:30.599Z,97753.59
2022-07-31T16:43:48.237Z,97753.56
2022-07-31T16:46:00.622Z,97754.47
2022-07-31T16:48:33.681Z,97750.94
2022-07-31T16:51:07.267Z,97752.72
2022-07-31T16:54:10.583Z,97754.63
2022-07-31T16:56:37.506Z,97747.88
2022-07-31T16:59:10.565Z,97742.69
2022-07-31T17:01:58.395Z,97749.75
2022-07-31T17:04:34.329Z,97742.72
2022-07-31T17:07:07.892Z,97749.69
2022-07-31T17:09:42.561Z,97738.28
2022-07-31T17:12:17.648Z,97742.63
2022-07-31T17:14:50.816Z,97741.63
2022-07-31T17:17:23.898Z,97741.69
2022-07-31T17:19:56.947Z,97742.63
2022-07-31T17:22:30.066Z,97748.59
2022-07-31T17:25:06.426Z,97741.63
2022-07-31T17:27:39.489Z,97734.84
2022-07-31T17:30:13.517Z,97741.25
2022-07-31T17:32:46.733Z,97747.81
2022-07-31T17:35:19.943Z,97748.91
2022-07-31T17:37:53.034Z,97752.66
2022-07-31T17:40:43.042Z,97747.66
2022-07-31T17:43:17.119Z,97754.91
2022-07-31T17:46:08.494Z,97758.59
2022-07-31T17:48:50.980Z,97752.59
2022-07-31T17:51:24.126Z,97753.59
2022-07-31T17:54:00.398Z,97760.75
2022-07-31T17:56:34.975Z,97771.50
2022-07-31T17:59:08.051Z,97766.28
2022-07-31T18:01:41.204Z,97772.50
2022-07-31T18:04:16.951Z,97775.19
2022-07-31T18:06:54.666Z,97770.09
2022-07-31T18:09:29.274Z,97772.84
2022-07-31T18:12:04.493Z,97775.53
2022-07-31T18:14:37.887Z,97765.09
2022-07-31T18:17:11.258Z,97772.13
2022-07-31T18:19:44.321Z,97771.50
2022-07-31T18:22:17.452Z,97781.31
2022-07-31T18:24:50.542Z,97777.94
2022-07-31T18:27:25.021Z,97769.31
2022-07-31T18:29:58.473Z,97771.19
2022-07-31T18:32:32.015Z,97770.50
2022-07-31T18:35:06.371Z,97780.22
2022-07-31T18:37:39.523Z,97776.84
2022-07-31T18:40:13.413Z,97782.22
2022-07-31T18:42:47.814Z,97770.09
2022-07-31T18:45:20.895Z,97779.91
2022-07-31T18:47:54.704Z,97782.59
2022-07-31T18:51:02.914Z,97782.69
2022-07-31T18:53:20.880Z,97779.28
2022-07-31T18:55:54.221Z,97781.06
2022-07-31T18:58:28.870Z,97779.34
2022-07-31T19:01:02.532Z,97777.66
2022-07-31T19:03:35.660Z,97781.19
2022-07-31T19:06:08.777Z,97785.59
2022-07-31T19:08:41.890Z,97787.38
2022-07-31T19:11:14.947Z,97785.69
2022-07-31T19:13:49.413Z,97788.34
2022-07-31T19:16:22.559Z,97786.66
2022-07-31T19:18:57.501Z,97782.31
2022-07-31T19:21:42.144Z,97795.41
2022-07-31T19:24:17.138Z,97787.53
2022-07-31T19:26:51.099Z,97794.56
2022-07-31T19:29:25.531Z,97799.81
2022-07-31T19:31:59.610Z,97801.63
2022-07-31T19:34:32.807Z,97793.75
2022-07-31T19:37:09.668Z,97799.03
2022-07-31T19:39:43.158Z,97796.41
2022-07-31T19:42:16.227Z,97804.31
2022-07-31T19:44:50.744Z,97804.28
2022-07-31T19:47:23.790Z,97816.50
2022-07-31T19:49:56.852Z,97820.88
2022-07-31T19:52:29.953Z,97820.00
2022-07-31T19:55:02.988Z,97813.00
2022-07-31T19:57:36.283Z,97818.25
2022-07-31T20:00:13.105Z,97828.72
2022-07-31T20:02:46.199Z,97821.75
2022-07-31T20:05:19.359Z,97823.50
2022-07-31T20:07:52.503Z,97816.50
2022-07-31T20:10:25.624Z,97825.16
2022-07-31T20:12:58.756Z,97824.25
2022-07-31T20:15:52.288Z,97826.00
2022-07-31T20:18:28.908Z,97828.59
2022-07-31T20:21:07.168Z,97832.91
2022-07-31T20:23:41.622Z,97831.16
2022-07-31T20:26:15.435Z,97842.41
2022-07-31T20:28:48.504Z,97835.47
2022-07-31T20:31:22.962Z,97838.84
2022-07-31T20:33:56.750Z,97832.72
2022-07-31T20:36:31.248Z,97840.50
2022-07-31T20:39:04.495Z,97843.94
2022-07-31T20:41:37.569Z,97846.47
2022-07-31T20:44:11.131Z,97842.09
2022-07-31T20:46:45.738Z,97845.53
2022-07-31T20:49:35.418Z,97843.78
2022-07-31T20:52:09.506Z,97845.41
2022-07-31T20:54:42.624Z,97846.16
2022-07-31T20:57:17.328Z,97846.03
2022-07-31T20:59:50.371Z,97844.28
2022-07-31T21:02:24.835Z,97853.81
2022-07-31T21:04:57.884Z,97847.59
2022-07-31T21:07:31.187Z,97846.75
2022-07-31T21:10:05.318Z,97857.13
2022-07-31T21:12:39.803Z,97851.88
2022-07-31T21:15:43.357Z,97855.28
2022-07-31T21:18:08.158Z,97847.44
2022-07-31T21:20:52.143Z,97857.72
2022-07-31T21:23:28.310Z,97856.75
2022-07-31T21:26:02.782Z,97856.63
2022-07-31T21:28:36.582Z,97856.50
2022-07-31T21:31:10.343Z,97861.59
2022-07-31T21:33:45.704Z,97864.16
2022-07-31T21:36:20.846Z,97863.28
2022-07-31T21:38:54.834Z,97863.19
2022-07-31T21:41:28.874Z,97855.28
2022-07-31T21:44:02.625Z,97863.00
2022-07-31T21:46:40.775Z,97863.81
2022-07-31T21:49:21.546Z,97866.38
2022-07-31T21:51:55.560Z,97870.66
2022-07-31T21:54:28.871Z,97874.94
2022-07-31T21:57:01.991Z,97882.59
2022-07-31T21:59:35.078Z,97876.41
2022-07-31T22:02:08.249Z,97886.56
2022-07-31T22:04:56.694Z,97883.03
2022-07-31T22:07:32.797Z,97888.19
2022-07-31T22:10:07.102Z,97889.16
2022-07-31T22:12:40.898Z,97891.72
2022-07-31T22:15:15.709Z,97888.16
2022-07-31T22:17:49.120Z,97895.84
2022-07-31T22:20:24.242Z,97896.63
2022-07-31T22:22:58.600Z,97895.75
2022-07-31T22:25:32.615Z,97898.16
2022-07-31T22:28:07.356Z,97899.78
2022-07-31T22:30:40.898Z,97899.84
2022-07-31T22:33:14.607Z,97897.00
2022-07-31T22:35:58.268Z,97894.34
2022-07-31T22:38:34.621Z,97895.97
2022-07-31T22:41:07.887Z,97899.53
2022-07-31T22:44:10.443Z,97901.16
2022-07-31T22:46:37.872Z,97902.81
2022-07-31T22:49:11.615Z,97901.94
2022-07-31T22:51:46.815Z,97899.34
2022-07-31T22:54:19.912Z,97911.16
2022-07-31T22:56:52.971Z,97904.19
2022-07-31T22:59:26.149Z,97902.38
2022-07-31T23:02:04.528Z,97907.44
2022-07-31T23:04:38.388Z,97914.22
2022-07-31T23:07:12.870Z,97915.97
2022-07-31T23:09:45.939Z,97922.03
2022-07-31T23:12:19.076Z,97920.22
2022-07-31T23:14:52.401Z,97919.25
2022-07-31T23:17:25.487Z,97924.25
2022-07-31T23:19:58.871Z,97922.47
2022-07-31T23:22:34.278Z,97931.81
2022-07-31T23:25:09.716Z,97930.06
2022-07-31T23:27:42.790Z,97930.75
2022-07-31T23:30:15.840Z,97925.38
2022-07-31T23:32:48.936Z,97926.19
2022-07-31T23:35:22.054Z,97923.53
2022-07-31T23:37:56.535Z,97932.88
2022-07-31T23:40:29.807Z,97925.88
2022-07-31T23:43:01.963Z,97927.56
2022-07-31T23:45:35.942Z,97935.22
2022-07-31T23:48:09.133Z,97936.91
2022-07-31T23:50:48.143Z,97935.75
2022-07-31T23:53:22.608Z,97931.34
2022-07-31T23:55:55.712Z,97929.69
2022-07-31T23:58:28.770Z,97938.13
